Khon Kaen, Thailand

12:06 PM ICT on December 10, 2016 (GMT +0700)
Khon Kaen | | Change Station

Elev 633 ft 16.46 °N, 102.79 °E | Updated 1 hour ago

Clear
Clear
82 °F
Feels Like 83 °F
N
8
Wind Variable Wind from NE

Today
High -- | Low -- °F
--% Chance of Precip.
Yesterday
High -- | Low -- °F
Precip. -- in
Pressure 29.95 in
Visibility 4.3 miles
Clouds
Heat Index 83 °F
Dew Point 61 °F
Humidity 48%
Rainfall 0.00 in
Snow Depth Not available.
6:26 AM 5:36 PM
Waxing Gibbous, 80% visible
METAR VTUK 100400Z 05007KT 350V090 7000 NSC 28/16 Q1014 NOSIG
Pressure 29.95 in
Visibility 4.3 miles
Clouds
Heat Index 83 °F
Dew Point 61 °F
Humidity 48%
Rainfall 0.00 in
Snow Depth Not available.
6:26 AM 5:36 PM
Waxing Gibbous, 80% visible
METAR VTUK 100400Z 05007KT 350V090 7000 NSC 28/16 Q1014 NOSIG

10-Day Weather Forecast

No radar image for this location.
×

Almanac

Astronomy

Dec. 10, 2016 Rise Set
Actual Time
Civil Twilight
Nautical Twilight
Astronomical Twilight
Moon
Length of Visible Light
Length of Day
Tomorrow will be .
, % of the Moon is Illuminated

Today's Extremes

Country Highs Country Lows

Community

WunderPhotos

Upload Photos

1,956,529 photos uploaded!

WunderBlog® & News

Nearby

Air Quality

  Air Quality AQ Index Pollutant
Not available.

Snow Depth

Station Depth Elevation

Earthquake Activity

City Distance Mag. Time & Date
Minimum magnitude displayed is 2.5.

Coastal Water Temperatures

Place Temperature

Stations

Nearby Weather Stations

Station Location Temp. Windchill Dew Point Humidity Wind Precip. Elev Updated Type